sensor_id;sensor_type;location;lat;lon;timestamp;temperature;humidity
2889;DHT22;1453;42.708;23.282;2022-12-04T00:02:24;5.90;99.90
2889;DHT22;1453;42.708;23.282;2022-12-04T00:04:50;5.90;99.90
2889;DHT22;1453;42.708;23.282;2022-12-04T00:07:16;5.80;99.90
2889;DHT22;1453;42.708;23.282;2022-12-04T00:09:42;5.60;99.90
2889;DHT22;1453;42.708;23.282;2022-12-04T00:12:08;5.60;99.90
2889;DHT22;1453;42.708;23.282;2022-12-04T00:14:34;5.60;99.90
2889;DHT22;1453;42.708;23.282;2022-12-04T00:16:59;5.70;99.90
2889;DHT22;1453;42.708;23.282;2022-12-04T00:19:25;5.70;99.90
2889;DHT22;1453;42.708;23.282;2022-12-04T00:21:51;5.70;99.90
2889;DHT22;1453;42.708;23.282;2022-12-04T00:24:17;5.70;99.90
2889;DHT22;1453;42.708;23.282;2022-12-04T00:26:43;5.80;99.90
2889;DHT22;1453;42.708;23.282;2022-12-04T00:29:08;5.80;99.90
2889;DHT22;1453;42.708;23.282;2022-12-04T00:31:34;5.80;99.90
2889;DHT22;1453;42.708;23.282;2022-12-04T00:34:00;5.70;99.90
2889;DHT22;1453;42.708;23.282;2022-12-04T00:36:27;5.50;99.90
2889;DHT22;1453;42.708;23.282;2022-12-04T00:38:54;5.40;99.90
2889;DHT22;1453;42.708;23.282;2022-12-04T00:41:28;5.40;99.90
2889;DHT22;1453;42.708;23.282;2022-12-04T00:43:57;5.40;99.90
2889;DHT22;1453;42.708;23.282;2022-12-04T00:46:23;5.50;99.90
2889;DHT22;1453;42.708;23.282;2022-12-04T00:48:50;5.40;99.90
2889;DHT22;1453;42.708;23.282;2022-12-04T00:51:20;5.40;99.90
2889;DHT22;1453;42.708;23.282;2022-12-04T00:53:47;5.30;99.90
2889;DHT22;1453;42.708;23.282;2022-12-04T00:56:15;5.20;99.90
2889;DHT22;1453;42.708;23.282;2022-12-04T00:58:44;5.30;99.90
2889;DHT22;1453;42.708;23.282;2022-12-04T01:01:12;5.30;99.90
2889;DHT22;1453;42.708;23.282;2022-12-04T01:03:40;5.30;99.90
2889;DHT22;1453;42.708;23.282;2022-12-04T01:06:06;5.50;99.90
2889;DHT22;1453;42.708;23.282;2022-12-04T01:08:41;5.40;99.90
2889;DHT22;1453;42.708;23.282;2022-12-04T01:11:06;5.40;99.90
2889;DHT22;1453;42.708;23.282;2022-12-04T01:13:32;5.40;99.90
2889;DHT22;1453;42.708;23.282;2022-12-04T01:15:58;5.20;99.90
2889;DHT22;1453;42.708;23.282;2022-12-04T01:18:24;5.30;99.90
2889;DHT22;1453;42.708;23.282;2022-12-04T01:20:51;5.40;99.90
2889;DHT22;1453;42.708;23.282;2022-12-04T01:23:17;5.60;99.90
2889;DHT22;1453;42.708;23.282;2022-12-04T01:25:56;5.60;99.90
2889;DHT22;1453;42.708;23.282;2022-12-04T01:28:23;5.40;99.90
2889;DHT22;1453;42.708;23.282;2022-12-04T01:31:17;5.30;99.90
2889;DHT22;1453;42.708;23.282;2022-12-04T01:33:44;5.30;99.90
2889;DHT22;1453;42.708;23.282;2022-12-04T01:36:13;5.30;99.90
2889;DHT22;1453;42.708;23.282;2022-12-04T01:38:42;5.20;99.90
2889;DHT22;1453;42.708;23.282;2022-12-04T01:41:10;5.20;99.90
2889;DHT22;1453;42.708;23.282;2022-12-04T01:43:37;5.20;99.90
2889;DHT22;1453;42.708;23.282;2022-12-04T01:46:05;5.10;99.90
2889;DHT22;1453;42.708;23.282;2022-12-04T01:48:47;5.10;99.90
2889;DHT22;1453;42.708;23.282;2022-12-04T01:51:32;5.20;99.90
2889;DHT22;1453;42.708;23.282;2022-12-04T01:54:05;5.20;99.90
2889;DHT22;1453;42.708;23.282;2022-12-04T01:56:42;5.20;99.90
2889;DHT22;1453;42.708;23.282;2022-12-04T01:59:12;5.20;99.90
2889;DHT22;1453;42.708;23.282;2022-12-04T02:01:56;5.00;99.90
2889;DHT22;1453;42.708;23.282;2022-12-04T02:04:24;5.00;99.90
2889;DHT22;1453;42.708;23.282;2022-12-04T02:06:50;4.90;99.90
2889;DHT22;1453;42.708;23.282;2022-12-04T02:09:16;4.90;99.90
2889;DHT22;1453;42.708;23.282;2022-12-04T02:11:53;4.90;99.90
2889;DHT22;1453;42.708;23.282;2022-12-04T02:31:21;5.10;99.90
2889;DHT22;1453;42.708;23.282;2022-12-04T02:34:17;5.00;99.90
2889;DHT22;1453;42.708;23.282;2022-12-04T02:37:20;5.00;99.90
2889;DHT22;1453;42.708;23.282;2022-12-04T02:39:55;5.10;99.90
2889;DHT22;1453;42.708;23.282;2022-12-04T02:42:43;5.10;99.90
2889;DHT22;1453;42.708;23.282;2022-12-04T02:45:14;5.20;99.90
2889;DHT22;1453;42.708;23.282;2022-12-04T02:47:44;5.20;99.90
2889;DHT22;1453;42.708;23.282;2022-12-04T02:50:14;5.20;99.90
2889;DHT22;1453;42.708;23.282;2022-12-04T02:52:55;5.20;99.90
2889;DHT22;1453;42.708;23.282;2022-12-04T02:55:56;5.30;99.90
2889;DHT22;1453;42.708;23.282;2022-12-04T02:58:29;5.30;99.90
2889;DHT22;1453;42.708;23.282;2022-12-04T03:00:59;5.20;99.90
2889;DHT22;1453;42.708;23.282;2022-12-04T03:03:29;5.20;99.90
2889;DHT22;1453;42.708;23.282;2022-12-04T03:06:09;5.30;99.90
2889;DHT22;1453;42.708;23.282;2022-12-04T03:08:41;5.30;99.90
2889;DHT22;1453;42.708;23.282;2022-12-04T03:11:09;5.30;99.90
2889;DHT22;1453;42.708;23.282;2022-12-04T03:13:40;5.30;99.90
2889;DHT22;1453;42.708;23.282;2022-12-04T03:16:21;5.30;99.90
2889;DHT22;1453;42.708;23.282;2022-12-04T03:18:59;5.20;99.90
2889;DHT22;1453;42.708;23.282;2022-12-04T03:21:31;5.10;99.90
2889;DHT22;1453;42.708;23.282;2022-12-04T03:26:53;5.30;99.90
2889;DHT22;1453;42.708;23.282;2022-12-04T03:29:38;5.30;99.90
2889;DHT22;1453;42.708;23.282;2022-12-04T03:32:11;5.30;99.90
2889;DHT22;1453;42.708;23.282;2022-12-04T03:34:47;5.20;99.90
2889;DHT22;1453;42.708;23.282;2022-12-04T03:38:10;5.20;99.90
2889;DHT22;1453;42.708;23.282;2022-12-04T03:40:26;5.10;99.90
2889;DHT22;1453;42.708;23.282;2022-12-04T03:43:38;5.20;99.90
2889;DHT22;1453;42.708;23.282;2022-12-04T03:46:02;5.30;99.90
2889;DHT22;1453;42.708;23.282;2022-12-04T03:48:53;5.20;99.90
2889;DHT22;1453;42.708;23.282;2022-12-04T03:51:53;5.20;99.90
2889;DHT22;1453;42.708;23.282;2022-12-04T03:54:51;5.20;99.90
2889;DHT22;1453;42.708;23.282;2022-12-04T03:57:28;5.30;99.90
2889;DHT22;1453;42.708;23.282;2022-12-04T04:00:13;5.30;99.90
2889;DHT22;1453;42.708;23.282;2022-12-04T04:03:02;5.30;99.90
2889;DHT22;1453;42.708;23.282;2022-12-04T04:05:46;5.20;99.90
2889;DHT22;1453;42.708;23.282;2022-12-04T04:08:20;5.20;99.90
2889;DHT22;1453;42.708;23.282;2022-12-04T04:10:54;5.10;99.90
2889;DHT22;1453;42.708;23.282;2022-12-04T04:13:29;5.10;99.90
2889;DHT22;1453;42.708;23.282;2022-12-04T04:16:20;5.20;99.90
2889;DHT22;1453;42.708;23.282;2022-12-04T04:19:07;5.20;99.90
2889;DHT22;1453;42.708;23.282;2022-12-04T04:21:54;5.10;99.90
2889;DHT22;1453;42.708;23.282;2022-12-04T04:24:49;5.10;99.90
2889;DHT22;1453;42.708;23.282;2022-12-04T04:27:18;5.30;99.90
2889;DHT22;1453;42.708;23.282;2022-12-04T04:29:44;5.20;99.90
2889;DHT22;1453;42.708;23.282;2022-12-04T04:32:40;5.20;99.90
2889;DHT22;1453;42.708;23.282;2022-12-04T04:35:33;5.10;99.90
2889;DHT22;1453;42.708;23.282;2022-12-04T04:40:54;5.10;99.90
2889;DHT22;1453;42.708;23.282;2022-12-04T04:43:25;5.00;99.90
2889;DHT22;1453;42.708;23.282;2022-12-04T04:46:08;5.00;99.90
2889;DHT22;1453;42.708;23.282;2022-12-04T04:48:43;5.10;99.90
2889;DHT22;1453;42.708;23.282;2022-12-04T04:51:12;5.20;99.90
2889;DHT22;1453;42.708;23.282;2022-12-04T04:53:48;5.20;99.90
2889;DHT22;1453;42.708;23.282;2022-12-04T04:56:16;5.10;99.90
2889;DHT22;1453;42.708;23.282;2022-12-04T04:58:42;5.10;99.90
2889;DHT22;1453;42.708;23.282;2022-12-04T05:01:11;5.10;99.90
2889;DHT22;1453;42.708;23.282;2022-12-04T05:03:39;5.10;99.90
2889;DHT22;1453;42.708;23.282;2022-12-04T05:06:07;5.10;99.90
2889;DHT22;1453;42.708;23.282;2022-12-04T05:08:33;5.10;99.90
2889;DHT22;1453;42.708;23.282;2022-12-04T05:11:00;5.10;99.90
2889;DHT22;1453;42.708;23.282;2022-12-04T05:13:28;5.10;99.90
2889;DHT22;1453;42.708;23.282;2022-12-04T05:16:05;5.10;99.90
2889;DHT22;1453;42.708;23.282;2022-12-04T05:18:34;5.20;99.90
2889;DHT22;1453;42.708;23.282;2022-12-04T05:21:08;5.20;99.90
2889;DHT22;1453;42.708;23.282;2022-12-04T05:23:40;5.10;99.90
2889;DHT22;1453;42.708;23.282;2022-12-04T05:26:07;4.90;99.90
2889;DHT22;1453;42.708;23.282;2022-12-04T05:28:33;4.90;99.90
2889;DHT22;1453;42.708;23.282;2022-12-04T05:31:01;5.00;99.90
2889;DHT22;1453;42.708;23.282;2022-12-04T05:33:28;5.00;99.90
2889;DHT22;1453;42.708;23.282;2022-12-04T05:36:20;5.00;99.90
2889;DHT22;1453;42.708;23.282;2022-12-04T05:38:46;5.00;99.90
2889;DHT22;1453;42.708;23.282;2022-12-04T05:41:12;4.90;99.90
2889;DHT22;1453;42.708;23.282;2022-12-04T05:43:38;5.00;99.90
2889;DHT22;1453;42.708;23.282;2022-12-04T05:46:05;5.00;99.90
2889;DHT22;1453;42.708;23.282;2022-12-04T05:48:33;5.00;99.90
2889;DHT22;1453;42.708;23.282;2022-12-04T05:51:03;5.00;99.90
2889;DHT22;1453;42.708;23.282;2022-12-04T05:53:33;5.10;99.90
2889;DHT22;1453;42.708;23.282;2022-12-04T05:56:01;5.20;99.90
2889;DHT22;1453;42.708;23.282;2022-12-04T05:58:27;5.30;99.90
2889;DHT22;1453;42.708;23.282;2022-12-04T06:00:54;5.30;99.90
2889;DHT22;1453;42.708;23.282;2022-12-04T06:03:21;5.30;99.90
2889;DHT22;1453;42.708;23.282;2022-12-04T06:05:47;5.50;99.90
2889;DHT22;1453;42.708;23.282;2022-12-04T06:08:13;5.40;99.90
2889;DHT22;1453;42.708;23.282;2022-12-04T06:10:39;5.30;99.90
2889;DHT22;1453;42.708;23.282;2022-12-04T06:13:05;5.30;99.90
2889;DHT22;1453;42.708;23.282;2022-12-04T06:15:35;5.50;99.90
2889;DHT22;1453;42.708;23.282;2022-12-04T06:18:02;5.30;99.90
2889;DHT22;1453;42.708;23.282;2022-12-04T06:20:28;5.40;99.90
2889;DHT22;1453;42.708;23.282;2022-12-04T06:22:54;5.30;99.90
2889;DHT22;1453;42.708;23.282;2022-12-04T06:25:20;5.30;99.90
2889;DHT22;1453;42.708;23.282;2022-12-04T06:27:45;5.50;99.90
2889;DHT22;1453;42.708;23.282;2022-12-04T06:30:11;5.40;99.90
2889;DHT22;1453;42.708;23.282;2022-12-04T06:32:37;5.50;99.90
2889;DHT22;1453;42.708;23.282;2022-12-04T06:35:03;5.40;99.90
2889;DHT22;1453;42.708;23.282;2022-12-04T06:37:32;5.50;99.90
2889;DHT22;1453;42.708;23.282;2022-12-04T06:39:58;5.60;99.90
2889;DHT22;1453;42.708;23.282;2022-12-04T06:42:25;5.50;99.90
2889;DHT22;1453;42.708;23.282;2022-12-04T06:44:51;5.70;99.90
2889;DHT22;1453;42.708;23.282;2022-12-04T06:47:16;5.80;99.90
2889;DHT22;1453;42.708;23.282;2022-12-04T06:49:42;5.80;99.90
2889;DHT22;1453;42.708;23.282;2022-12-04T06:52:10;5.80;99.90
2889;DHT22;1453;42.708;23.282;2022-12-04T06:54:36;5.80;99.90
2889;DHT22;1453;42.708;23.282;2022-12-04T06:57:02;5.80;99.90
2889;DHT22;1453;42.708;23.282;2022-12-04T06:59:27;5.90;99.90
2889;DHT22;1453;42.708;23.282;2022-12-04T07:01:53;5.90;99.90
2889;DHT22;1453;42.708;23.282;2022-12-04T07:04:19;6.00;99.90
2889;DHT22;1453;42.708;23.282;2022-12-04T07:06:46;6.10;99.90
2889;DHT22;1453;42.708;23.282;2022-12-04T07:09:15;6.30;99.90
2889;DHT22;1453;42.708;23.282;2022-12-04T07:11:42;6.60;99.90
2889;DHT22;1453;42.708;23.282;2022-12-04T07:14:09;6.60;99.90
2889;DHT22;1453;42.708;23.282;2022-12-04T07:16:38;6.90;99.90
2889;DHT22;1453;42.708;23.282;2022-12-04T07:19:04;7.20;99.90
2889;DHT22;1453;42.708;23.282;2022-12-04T07:21:30;7.50;99.90
2889;DHT22;1453;42.708;23.282;2022-12-04T07:23:58;7.80;99.90
2889;DHT22;1453;42.708;23.282;2022-12-04T07:26:26;8.00;99.90
2889;DHT22;1453;42.708;23.282;2022-12-04T07:28:54;8.10;99.90
2889;DHT22;1453;42.708;23.282;2022-12-04T07:31:22;8.40;99.90
2889;DHT22;1453;42.708;23.282;2022-12-04T07:33:49;8.30;99.90
2889;DHT22;1453;42.708;23.282;2022-12-04T07:36:17;8.60;99.90
2889;DHT22;1453;42.708;23.282;2022-12-04T07:38:44;8.60;99.90
2889;DHT22;1453;42.708;23.282;2022-12-04T07:41:12;8.40;99.90
2889;DHT22;1453;42.708;23.282;2022-12-04T07:43:38;8.30;99.90
2889;DHT22;1453;42.708;23.282;2022-12-04T07:46:07;8.20;99.90
2889;DHT22;1453;42.708;23.282;2022-12-04T07:48:35;7.90;99.90
2889;DHT22;1453;42.708;23.282;2022-12-04T07:51:20;7.60;99.90
2889;DHT22;1453;42.708;23.282;2022-12-04T07:53:48;7.60;99.90
2889;DHT22;1453;42.708;23.282;2022-12-04T07:56:16;7.70;99.90
2889;DHT22;1453;42.708;23.282;2022-12-04T07:58:42;7.70;99.90
2889;DHT22;1453;42.708;23.282;2022-12-04T08:03:37;7.30;99.90
2889;DHT22;1453;42.708;23.282;2022-12-04T08:06:04;7.30;99.90
2889;DHT22;1453;42.708;23.282;2022-12-04T08:08:31;7.30;99.90
2889;DHT22;1453;42.708;23.282;2022-12-04T08:10:58;7.20;99.90
2889;DHT22;1453;42.708;23.282;2022-12-04T08:13:24;7.10;99.90
2889;DHT22;1453;42.708;23.282;2022-12-04T08:15:50;7.10;99.90
2889;DHT22;1453;42.708;23.282;2022-12-04T08:18:16;7.10;99.90
2889;DHT22;1453;42.708;23.282;2022-12-04T08:20:43;7.30;99.90
2889;DHT22;1453;42.708;23.282;2022-12-04T08:23:08;7.40;99.90
2889;DHT22;1453;42.708;23.282;2022-12-04T08:25:38;7.20;99.90
2889;DHT22;1453;42.708;23.282;2022-12-04T08:28:05;7.20;99.90
2889;DHT22;1453;42.708;23.282;2022-12-04T08:30:32;7.20;99.90
2889;DHT22;1453;42.708;23.282;2022-12-04T08:32:58;7.50;99.90
2889;DHT22;1453;42.708;23.282;2022-12-04T08:35:24;7.40;99.90
2889;DHT22;1453;42.708;23.282;2022-12-04T08:37:49;7.30;99.90
2889;DHT22;1453;42.708;23.282;2022-12-04T08:40:15;7.30;99.90
2889;DHT22;1453;42.708;23.282;2022-12-04T08:42:42;7.30;99.90
2889;DHT22;1453;42.708;23.282;2022-12-04T08:45:08;7.30;99.90
2889;DHT22;1453;42.708;23.282;2022-12-04T08:47:34;7.40;99.90
2889;DHT22;1453;42.708;23.282;2022-12-04T08:50:00;7.60;99.90
2889;DHT22;1453;42.708;23.282;2022-12-04T08:52:26;7.80;99.90
2889;DHT22;1453;42.708;23.282;2022-12-04T08:54:52;7.80;99.90
2889;DHT22;1453;42.708;23.282;2022-12-04T08:57:18;7.70;99.90
2889;DHT22;1453;42.708;23.282;2022-12-04T08:59:43;7.60;99.90
2889;DHT22;1453;42.708;23.282;2022-12-04T09:02:10;7.80;99.90
2889;DHT22;1453;42.708;23.282;2022-12-04T09:04:36;8.00;99.90
2889;DHT22;1453;42.708;23.282;2022-12-04T09:07:02;7.90;99.90
2889;DHT22;1453;42.708;23.282;2022-12-04T09:09:28;7.90;99.90
2889;DHT22;1453;42.708;23.282;2022-12-04T09:11:54;7.70;99.90
2889;DHT22;1453;42.708;23.282;2022-12-04T09:14:20;7.80;99.90
2889;DHT22;1453;42.708;23.282;2022-12-04T09:16:51;7.90;99.90
2889;DHT22;1453;42.708;23.282;2022-12-04T09:19:17;8.00;99.90
2889;DHT22;1453;42.708;23.282;2022-12-04T09:21:43;7.90;99.90
2889;DHT22;1453;42.708;23.282;2022-12-04T09:24:09;8.00;99.90
2889;DHT22;1453;42.708;23.282;2022-12-04T09:26:35;8.40;99.90
2889;DHT22;1453;42.708;23.282;2022-12-04T09:29:02;8.60;99.90
2889;DHT22;1453;42.708;23.282;2022-12-04T09:31:31;9.20;99.90
2889;DHT22;1453;42.708;23.282;2022-12-04T09:34:00;9.10;99.90
2889;DHT22;1453;42.708;23.282;2022-12-04T09:36:28;8.60;99.90
2889;DHT22;1453;42.708;23.282;2022-12-04T09:38:56;8.80;99.90
2889;DHT22;1453;42.708;23.282;2022-12-04T09:47:44;8.90;99.90
2889;DHT22;1453;42.708;23.282;2022-12-04T09:50:38;8.50;99.90
2889;DHT22;1453;42.708;23.282;2022-12-04T09:53:24;8.60;99.90
2889;DHT22;1453;42.708;23.282;2022-12-04T09:56:09;8.40;99.90
2889;DHT22;1453;42.708;23.282;2022-12-04T09:58:54;8.00;99.90
2889;DHT22;1453;42.708;23.282;2022-12-04T10:04:23;8.00;99.90
2889;DHT22;1453;42.708;23.282;2022-12-04T10:09:24;7.90;99.90
2889;DHT22;1453;42.708;23.282;2022-12-04T10:23:54;9.30;99.90
2889;DHT22;1453;42.708;23.282;2022-12-04T10:26:27;9.20;99.90
2889;DHT22;1453;42.708;23.282;2022-12-04T10:29:07;9.10;99.90
2889;DHT22;1453;42.708;23.282;2022-12-04T10:31:39;9.40;99.90
2889;DHT22;1453;42.708;23.282;2022-12-04T10:36:49;9.20;99.90
2889;DHT22;1453;42.708;23.282;2022-12-04T10:39:24;9.50;99.90
2889;DHT22;1453;42.708;23.282;2022-12-04T10:42:03;8.80;99.90
2889;DHT22;1453;42.708;23.282;2022-12-04T10:44:33;9.20;99.90
2889;DHT22;1453;42.708;23.282;2022-12-04T10:47:01;9.80;99.90
2889;DHT22;1453;42.708;23.282;2022-12-04T10:49:32;10.00;99.90
2889;DHT22;1453;42.708;23.282;2022-12-04T10:52:00;9.70;99.90
2889;DHT22;1453;42.708;23.282;2022-12-04T10:57:18;9.80;99.90
2889;DHT22;1453;42.708;23.282;2022-12-04T10:59:52;9.30;99.90
2889;DHT22;1453;42.708;23.282;2022-12-04T11:05:03;9.80;99.90
2889;DHT22;1453;42.708;23.282;2022-12-04T11:07:44;10.20;99.90
2889;DHT22;1453;42.708;23.282;2022-12-04T11:10:24;10.40;99.90
2889;DHT22;1453;42.708;23.282;2022-12-04T11:13:15;10.70;99.90
2889;DHT22;1453;42.708;23.282;2022-12-04T11:15:44;11.30;99.90
2889;DHT22;1453;42.708;23.282;2022-12-04T11:18:21;11.60;99.90
2889;DHT22;1453;42.708;23.282;2022-12-04T11:21:25;11.60;99.90
2889;DHT22;1453;42.708;23.282;2022-12-04T11:23:50;10.90;99.90
2889;DHT22;1453;42.708;23.282;2022-12-04T11:26:31;10.50;99.90
2889;DHT22;1453;42.708;23.282;2022-12-04T11:28:59;10.30;99.90
2889;DHT22;1453;42.708;23.282;2022-12-04T11:31:26;10.30;99.90
2889;DHT22;1453;42.708;23.282;2022-12-04T11:33:56;10.70;99.90
2889;DHT22;1453;42.708;23.282;2022-12-04T11:36:39;11.20;99.90
2889;DHT22;1453;42.708;23.282;2022-12-04T11:39:15;11.60;99.90
2889;DHT22;1453;42.708;23.282;2022-12-04T11:41:44;12.10;99.90
2889;DHT22;1453;42.708;23.282;2022-12-04T11:44:30;12.30;99.90
2889;DHT22;1453;42.708;23.282;2022-12-04T11:46:59;11.90;99.90
2889;DHT22;1453;42.708;23.282;2022-12-04T11:49:28;12.00;99.90
2889;DHT22;1453;42.708;23.282;2022-12-04T11:55:00;11.70;99.90
2889;DHT22;1453;42.708;23.282;2022-12-04T11:57:46;11.70;99.90
2889;DHT22;1453;42.708;23.282;2022-12-04T12:00:19;11.40;99.90
2889;DHT22;1453;42.708;23.282;2022-12-04T12:03:09;10.70;99.90
2889;DHT22;1453;42.708;23.282;2022-12-04T12:08:47;10.00;99.90
2889;DHT22;1453;42.708;23.282;2022-12-04T12:11:41;10.50;99.90
2889;DHT22;1453;42.708;23.282;2022-12-04T12:14:27;10.80;99.90
2889;DHT22;1453;42.708;23.282;2022-12-04T12:20:32;10.90;99.90
2889;DHT22;1453;42.708;23.282;2022-12-04T12:36:30;9.20;99.90
2889;DHT22;1453;42.708;23.282;2022-12-04T12:38:27;8.80;99.90
2889;DHT22;1453;42.708;23.282;2022-12-04T12:41:02;8.30;99.90
2889;DHT22;1453;42.708;23.282;2022-12-04T12:43:32;8.60;99.90
2889;DHT22;1453;42.708;23.282;2022-12-04T12:49:06;8.40;99.90
2889;DHT22;1453;42.708;23.282;2022-12-04T12:52:05;8.20;99.90
2889;DHT22;1453;42.708;23.282;2022-12-04T12:54:47;8.20;99.90
2889;DHT22;1453;42.708;23.282;2022-12-04T12:57:27;8.30;99.90
2889;DHT22;1453;42.708;23.282;2022-12-04T13:00:22;8.10;99.90
2889;DHT22;1453;42.708;23.282;2022-12-04T13:02:54;8.10;99.90
2889;DHT22;1453;42.708;23.282;2022-12-04T13:05:29;8.00;99.90
2889;DHT22;1453;42.708;23.282;2022-12-04T13:11:11;7.60;99.90
2889;DHT22;1453;42.708;23.282;2022-12-04T13:13:50;7.40;99.90
2889;DHT22;1453;42.708;23.282;2022-12-04T13:18:51;7.50;99.90
2889;DHT22;1453;42.708;23.282;2022-12-04T13:21:34;7.40;99.90
2889;DHT22;1453;42.708;23.282;2022-12-04T13:24:40;7.60;99.90
2889;DHT22;1453;42.708;23.282;2022-12-04T13:38:42;7.00;99.90
2889;DHT22;1453;42.708;23.282;2022-12-04T13:41:19;7.10;99.90
2889;DHT22;1453;42.708;23.282;2022-12-04T13:43:47;7.00;99.90
2889;DHT22;1453;42.708;23.282;2022-12-04T13:46:28;7.10;99.90
2889;DHT22;1453;42.708;23.282;2022-12-04T13:51:49;7.10;99.90
2889;DHT22;1453;42.708;23.282;2022-12-04T13:56:47;6.90;99.90
2889;DHT22;1453;42.708;23.282;2022-12-04T13:59:22;7.00;99.90
2889;DHT22;1453;42.708;23.282;2022-12-04T14:01:53;7.00;99.90
2889;DHT22;1453;42.708;23.282;2022-12-04T14:05:06;7.10;99.90
2889;DHT22;1453;42.708;23.282;2022-12-04T14:07:38;7.40;99.90
2889;DHT22;1453;42.708;23.282;2022-12-04T14:12:42;7.50;99.90
2889;DHT22;1453;42.708;23.282;2022-12-04T14:15:25;7.40;99.90
2889;DHT22;1453;42.708;23.282;2022-12-04T14:20:34;6.90;99.90
2889;DHT22;1453;42.708;23.282;2022-12-04T14:23:26;6.70;99.90
2889;DHT22;1453;42.708;23.282;2022-12-04T14:26:25;6.70;99.90
2889;DHT22;1453;42.708;23.282;2022-12-04T14:29:06;6.60;99.90
2889;DHT22;1453;42.708;23.282;2022-12-04T14:32:15;6.50;99.90
2889;DHT22;1453;42.708;23.282;2022-12-04T14:34:43;6.40;99.90
2889;DHT22;1453;42.708;23.282;2022-12-04T14:37:22;6.40;99.90
2889;DHT22;1453;42.708;23.282;2022-12-04T14:39:55;6.30;99.90
2889;DHT22;1453;42.708;23.282;2022-12-04T14:44:57;6.10;99.90
2889;DHT22;1453;42.708;23.282;2022-12-04T14:50:43;6.10;99.90
2889;DHT22;1453;42.708;23.282;2022-12-04T14:59:15;6.20;99.90
2889;DHT22;1453;42.708;23.282;2022-12-04T15:01:46;6.20;99.90
2889;DHT22;1453;42.708;23.282;2022-12-04T15:06:54;6.10;99.90
2889;DHT22;1453;42.708;23.282;2022-12-04T15:09:22;6.00;99.90
2889;DHT22;1453;42.708;23.282;2022-12-04T15:12:21;6.00;99.90
2889;DHT22;1453;42.708;23.282;2022-12-04T15:17:57;5.90;99.90
2889;DHT22;1453;42.708;23.282;2022-12-04T15:20:57;6.00;99.90
2889;DHT22;1453;42.708;23.282;2022-12-04T15:26:17;5.90;99.90
2889;DHT22;1453;42.708;23.282;2022-12-04T15:28:57;5.90;99.90
2889;DHT22;1453;42.708;23.282;2022-12-04T15:34:01;6.00;99.90
2889;DHT22;1453;42.708;23.282;2022-12-04T15:36:44;5.90;99.90
2889;DHT22;1453;42.708;23.282;2022-12-04T15:39:15;6.10;99.90
2889;DHT22;1453;42.708;23.282;2022-12-04T15:41:43;6.00;99.90
2889;DHT22;1453;42.708;23.282;2022-12-04T15:44:24;6.00;99.90
2889;DHT22;1453;42.708;23.282;2022-12-04T15:46:54;6.00;99.90
2889;DHT22;1453;42.708;23.282;2022-12-04T15:49:30;6.10;99.90
2889;DHT22;1453;42.708;23.282;2022-12-04T15:52:17;6.00;99.90
2889;DHT22;1453;42.708;23.282;2022-12-04T15:54:55;5.90;99.90
2889;DHT22;1453;42.708;23.282;2022-12-04T15:57:39;5.90;99.90
2889;DHT22;1453;42.708;23.282;2022-12-04T16:00:30;5.80;99.90
2889;DHT22;1453;42.708;23.282;2022-12-04T16:02:58;5.80;99.90
2889;DHT22;1453;42.708;23.282;2022-12-04T16:05:29;5.90;99.90
2889;DHT22;1453;42.708;23.282;2022-12-04T16:08:24;5.80;99.90
2889;DHT22;1453;42.708;23.282;2022-12-04T16:11:01;5.90;99.90
2889;DHT22;1453;42.708;23.282;2022-12-04T16:13:46;5.80;99.90
2889;DHT22;1453;42.708;23.282;2022-12-04T16:16:17;5.80;99.90
2889;DHT22;1453;42.708;23.282;2022-12-04T16:18:45;5.60;99.90
2889;DHT22;1453;42.708;23.282;2022-12-04T16:21:16;5.60;99.90
2889;DHT22;1453;42.708;23.282;2022-12-04T16:23:44;5.50;99.90
2889;DHT22;1453;42.708;23.282;2022-12-04T16:26:19;5.40;99.90
2889;DHT22;1453;42.708;23.282;2022-12-04T16:28:45;5.30;99.90
2889;DHT22;1453;42.708;23.282;2022-12-04T16:31:12;5.30;99.90
2889;DHT22;1453;42.708;23.282;2022-12-04T16:33:38;5.30;99.90
2889;DHT22;1453;42.708;23.282;2022-12-04T16:36:04;5.40;99.90
2889;DHT22;1453;42.708;23.282;2022-12-04T16:38:30;5.40;99.90
2889;DHT22;1453;42.708;23.282;2022-12-04T16:40:56;5.40;99.90
2889;DHT22;1453;42.708;23.282;2022-12-04T16:43:22;5.30;99.90
2889;DHT22;1453;42.708;23.282;2022-12-04T16:45:51;5.30;99.90
2889;DHT22;1453;42.708;23.282;2022-12-04T16:48:18;5.30;99.90
2889;DHT22;1453;42.708;23.282;2022-12-04T16:50:44;5.20;99.90
2889;DHT22;1453;42.708;23.282;2022-12-04T16:53:20;5.20;99.90
2889;DHT22;1453;42.708;23.282;2022-12-04T16:55:48;5.20;99.90
2889;DHT22;1453;42.708;23.282;2022-12-04T16:58:16;5.20;99.90
2889;DHT22;1453;42.708;23.282;2022-12-04T17:00:45;5.10;99.90
2889;DHT22;1453;42.708;23.282;2022-12-04T17:03:20;5.20;99.90
2889;DHT22;1453;42.708;23.282;2022-12-04T17:05:51;5.10;99.90
2889;DHT22;1453;42.708;23.282;2022-12-04T17:08:21;5.20;99.90
2889;DHT22;1453;42.708;23.282;2022-12-04T17:10:47;5.10;99.90
2889;DHT22;1453;42.708;23.282;2022-12-04T17:13:16;5.10;99.90
2889;DHT22;1453;42.708;23.282;2022-12-04T17:15:43;5.10;99.90
2889;DHT22;1453;42.708;23.282;2022-12-04T17:18:09;5.20;99.90
2889;DHT22;1453;42.708;23.282;2022-12-04T17:20:34;5.20;99.90
2889;DHT22;1453;42.708;23.282;2022-12-04T17:23:00;5.20;99.90
2889;DHT22;1453;42.708;23.282;2022-12-04T17:25:26;5.10;99.90
2889;DHT22;1453;42.708;23.282;2022-12-04T17:27:52;5.10;99.90
2889;DHT22;1453;42.708;23.282;2022-12-04T17:30:18;5.20;99.90
2889;DHT22;1453;42.708;23.282;2022-12-04T17:32:44;5.10;99.90
2889;DHT22;1453;42.708;23.282;2022-12-04T17:35:12;5.10;99.90
2889;DHT22;1453;42.708;23.282;2022-12-04T17:37:38;5.10;99.90
2889;DHT22;1453;42.708;23.282;2022-12-04T17:40:10;5.10;99.90
2889;DHT22;1453;42.708;23.282;2022-12-04T17:42:41;5.10;99.90
2889;DHT22;1453;42.708;23.282;2022-12-04T17:45:09;5.20;99.90
2889;DHT22;1453;42.708;23.282;2022-12-04T17:47:37;5.20;99.90
2889;DHT22;1453;42.708;23.282;2022-12-04T17:50:04;5.20;99.90
2889;DHT22;1453;42.708;23.282;2022-12-04T17:52:32;5.20;99.90
2889;DHT22;1453;42.708;23.282;2022-12-04T17:54:59;5.20;99.90
2889;DHT22;1453;42.708;23.282;2022-12-04T17:57:27;5.20;99.90
2889;DHT22;1453;42.708;23.282;2022-12-04T17:59:53;5.20;99.90
2889;DHT22;1453;42.708;23.282;2022-12-04T18:02:20;5.20;99.90
2889;DHT22;1453;42.708;23.282;2022-12-04T18:04:47;5.20;99.90
2889;DHT22;1453;42.708;23.282;2022-12-04T18:07:12;5.20;99.90
2889;DHT22;1453;42.708;23.282;2022-12-04T18:09:38;5.20;99.90
2889;DHT22;1453;42.708;23.282;2022-12-04T18:12:04;5.20;99.90
2889;DHT22;1453;42.708;23.282;2022-12-04T18:14:30;5.20;99.90
2889;DHT22;1453;42.708;23.282;2022-12-04T18:16:57;5.20;99.90
2889;DHT22;1453;42.708;23.282;2022-12-04T18:19:25;5.20;99.90
2889;DHT22;1453;42.708;23.282;2022-12-04T18:21:52;5.20;99.90
2889;DHT22;1453;42.708;23.282;2022-12-04T18:24:19;5.20;99.90
2889;DHT22;1453;42.708;23.282;2022-12-04T18:26:47;5.10;99.90
2889;DHT22;1453;42.708;23.282;2022-12-04T18:29:16;5.10;99.90
2889;DHT22;1453;42.708;23.282;2022-12-04T18:31:48;5.10;99.90
2889;DHT22;1453;42.708;23.282;2022-12-04T18:34:15;5.10;99.90
2889;DHT22;1453;42.708;23.282;2022-12-04T18:36:42;5.10;99.90
2889;DHT22;1453;42.708;23.282;2022-12-04T18:39:15;5.00;99.90
2889;DHT22;1453;42.708;23.282;2022-12-04T18:41:44;5.10;99.90
2889;DHT22;1453;42.708;23.282;2022-12-04T18:44:10;5.20;99.90
2889;DHT22;1453;42.708;23.282;2022-12-04T18:46:36;5.20;99.90